Time;durP1;ratioP1;P1;durP2;ratioP2;P2;SDS_P1;SDS_P2;PMS_P1;PMS_P2;Temp;Humidity;BMP_temperature;BMP_pressure;BME280_temperature;BME280_humidity;BME280_pressure;Samples;Min_cycle;Max_cycle;Signal;HPM_P1;HPM_P2
2022/11/28 00:00:23;;;;;;;6.20;2.40;;;;;;;;;;5030059;28;20030;-87
2022/11/28 00:02:49;;;;;;;4.25;2.33;;;;;;;;;;5029325;28;20033;-88
2022/11/28 00:05:14;;;;;;;4.40;2.17;;;;;;;;;;5029352;28;20116;-88
2022/11/28 00:07:39;;;;;;;4.22;2.00;;;;;;;;;;5031802;28;20051;-87
2022/11/28 00:10:06;;;;;;;5.88;2.20;;;;;;;;;;5029642;28;20402;-87
2022/11/28 00:12:35;;;;;;;3.85;2.20;;;;;;;;;;5032467;28;20041;-85
2022/11/28 00:15:00;;;;;;;2.38;1.67;;;;;;;;;;5030273;28;20124;-87
2022/11/28 00:17:26;;;;;;;5.47;2.80;;;;;;;;;;5027104;28;20052;-87
2022/11/28 00:19:51;;;;;;;5.97;2.30;;;;;;;;;;5031624;28;20066;-87
2022/11/28 00:22:16;;;;;;;4.88;2.55;;;;;;;;;;5050423;28;20120;-87
2022/11/28 00:24:41;;;;;;;4.53;2.55;;;;;;;;;;5029629;28;20029;-87
2022/11/28 00:27:07;;;;;;;4.00;2.33;;;;;;;;;;5030853;28;20057;-87
2022/11/28 00:29:32;;;;;;;4.25;2.15;;;;;;;;;;5031047;28;20091;-87
2022/11/28 00:31:57;;;;;;;5.47;2.78;;;;;;;;;;5028950;28;20022;-87
2022/11/28 00:34:23;;;;;;;4.90;2.20;;;;;;;;;;5030470;28;20025;-87
2022/11/28 00:36:48;;;;;;;4.45;2.50;;;;;;;;;;5030385;28;20037;-87
2022/11/28 00:39:14;;;;;;;6.88;2.72;;;;;;;;;;5025290;28;20454;-87
2022/11/28 00:41:41;;;;;;;3.90;2.45;;;;;;;;;;5022598;28;20033;-87
2022/11/28 00:44:06;;;;;;;9.20;2.72;;;;;;;;;;5028795;28;20036;-88
2022/11/28 00:46:31;;;;;;;5.20;2.53;;;;;;;;;;5031318;28;20053;-87
2022/11/28 00:48:58;;;;;;;4.65;2.35;;;;;;;;;;5018252;28;20048;-88
2022/11/28 00:51:28;;;;;;;5.18;1.73;;;;;;;;;;5027440;28;20036;-87
2022/11/28 00:53:56;;;;;;;4.18;2.30;;;;;;;;;;5029273;28;20033;-87
2022/11/28 00:56:27;;;;;;;6.65;3.03;;;;;;;;;;5029967;28;20033;-87
2022/11/28 00:58:52;;;;;;;4.00;2.30;;;;;;;;;;5028447;28;20510;-86
2022/11/28 01:01:19;;;;;;;5.82;3.08;;;;;;;;;;5028119;28;20028;-88
2022/11/28 01:03:46;;;;;;;5.05;2.70;;;;;;;;;;5029099;28;20530;-87
2022/11/28 01:06:12;;;;;;;4.65;2.47;;;;;;;;;;5039136;28;20089;-86
2022/11/28 01:08:37;;;;;;;5.70;2.63;;;;;;;;;;5024821;28;20062;-87
2022/11/28 01:11:04;;;;;;;4.15;2.38;;;;;;;;;;5028696;28;20116;-87
2022/11/28 01:13:29;;;;;;;4.28;2.40;;;;;;;;;;5028162;28;20514;-87
2022/11/28 01:15:54;;;;;;;6.10;3.15;;;;;;;;;;5022373;28;20030;-87
2022/11/28 01:18:20;;;;;;;6.10;2.83;;;;;;;;;;5028188;28;20406;-87
2022/11/28 01:20:45;;;;;;;4.40;2.58;;;;;;;;;;5011081;28;20416;-88
2022/11/28 01:23:11;;;;;;;7.70;2.85;;;;;;;;;;5030324;28;20067;-87
2022/11/28 01:25:36;;;;;;;5.32;2.63;;;;;;;;;;5028706;28;20505;-87
2022/11/28 01:28:01;;;;;;;4.63;2.90;;;;;;;;;;5025318;28;20476;-86
2022/11/28 01:30:27;;;;;;;6.05;2.90;;;;;;;;;;5022870;28;20741;-87
2022/11/28 01:32:52;;;;;;;3.45;1.98;;;;;;;;;;5029902;28;20514;-87
2022/11/28 01:35:18;;;;;;;5.38;2.55;;;;;;;;;;5027900;28;20041;-87
2022/11/28 01:37:43;;;;;;;8.45;2.88;;;;;;;;;;5028178;28;20031;-87
2022/11/28 01:40:10;;;;;;;10.30;3.25;;;;;;;;;;5029080;28;20109;-87
2022/11/28 01:42:36;;;;;;;7.32;2.90;;;;;;;;;;5029530;28;20056;-87
2022/11/28 01:45:19;;;;;;;5.75;3.13;;;;;;;;;;5026381;28;20442;-87
2022/11/28 01:47:45;;;;;;;4.40;2.47;;;;;;;;;;5043396;28;20125;-87
2022/11/28 01:50:12;;;;;;;4.25;2.47;;;;;;;;;;5027783;28;20024;-88
2022/11/28 01:52:42;;;;;;;5.22;2.80;;;;;;;;;;5023971;28;20024;-87
2022/11/28 01:55:11;;;;;;;6.40;2.97;;;;;;;;;;5022570;28;20040;-87
2022/11/28 01:57:37;;;;;;;7.95;3.70;;;;;;;;;;5028798;28;20057;-88
2022/11/28 02:00:09;;;;;;;6.10;3.00;;;;;;;;;;5027427;28;20057;-88
2022/11/28 02:02:45;;;;;;;5.78;2.92;;;;;;;;;;5021366;28;20041;-87
2022/11/28 02:05:11;;;;;;;6.88;3.25;;;;;;;;;;5023773;28;20028;-88
2022/11/28 02:07:37;;;;;;;7.35;2.90;;;;;;;;;;5018344;28;20025;-88
2022/11/28 02:10:06;;;;;;;4.55;2.47;;;;;;;;;;5028442;28;20391;-88
2022/11/28 02:13:20;;;;;;;7.00;2.72;;;;;;;;;;5028016;28;20040;-88
2022/11/28 02:16:07;;;;;;;4.33;2.33;;;;;;;;;;5018744;28;20076;-88
2022/11/28 02:18:54;;;;;;;6.32;3.10;;;;;;;;;;5027941;28;20773;-87
2022/11/28 02:21:51;;;;;;;6.80;2.60;;;;;;;;;;5027433;28;20068;-87
2022/11/28 02:24:22;;;;;;;4.75;2.75;;;;;;;;;;5028326;28;20036;-88
2022/11/28 02:27:12;;;;;;;5.00;2.78;;;;;;;;;;5021442;28;20509;-88
2022/11/28 02:29:50;;;;;;;4.95;2.65;;;;;;;;;;5028984;28;20033;-88
2022/11/28 02:32:21;;;;;;;4.45;2.67;;;;;;;;;;5028499;28;20037;-87
2022/11/28 02:35:13;;;;;;;5.88;2.88;;;;;;;;;;5026264;28;20029;-87
2022/11/28 02:37:56;;;;;;;5.38;2.95;;;;;;;;;;5016342;28;20038;-87
2022/11/28 02:40:37;;;;;;;4.47;2.88;;;;;;;;;;5028668;28;20048;-87
2022/11/28 02:43:27;;;;;;;3.97;2.53;;;;;;;;;;5024448;28;20037;-87
2022/11/28 02:46:15;;;;;;;5.15;2.83;;;;;;;;;;5020766;28;20683;-87
2022/11/28 02:48:50;;;;;;;5.70;2.53;;;;;;;;;;5020975;28;20045;-87
2022/11/28 02:51:32;;;;;;;5.68;3.05;;;;;;;;;;5030131;28;20629;-86
2022/11/28 02:54:03;;;;;;;5.50;3.17;;;;;;;;;;5029940;28;20524;-87
2022/11/28 02:56:29;;;;;;;5.13;2.97;;;;;;;;;;5030532;28;20029;-86
2022/11/28 02:58:54;;;;;;;4.00;2.65;;;;;;;;;;5023229;28;20120;-87
2022/11/28 03:01:24;;;;;;;5.38;2.97;;;;;;;;;;5046453;28;20022;-87
2022/11/28 03:04:01;;;;;;;5.35;3.13;;;;;;;;;;5029566;28;20041;-86
2022/11/28 03:06:44;;;;;;;4.70;2.75;;;;;;;;;;5023939;28;20128;-87
2022/11/28 03:09:47;;;;;;;5.60;3.22;;;;;;;;;;5020622;28;20101;-87
2022/11/28 03:12:23;;;;;;;6.10;3.67;;;;;;;;;;5023287;28;20042;-87
2022/11/28 03:14:58;;;;;;;6.10;3.38;;;;;;;;;;5028079;28;20037;-87
2022/11/28 03:17:43;;;;;;;6.28;3.88;;;;;;;;;;5025346;28;20045;-87
2022/11/28 03:20:28;;;;;;;5.60;3.63;;;;;;;;;;5017029;28;20025;-87
2022/11/28 03:23:12;;;;;;;7.20;3.40;;;;;;;;;;5030633;28;20037;-86
2022/11/28 03:25:55;;;;;;;6.13;3.72;;;;;;;;;;5031454;28;20025;-87
2022/11/28 03:28:20;;;;;;;6.88;4.38;;;;;;;;;;5019791;28;20435;-87
2022/11/28 03:30:51;;;;;;;6.10;3.85;;;;;;;;;;5022377;28;20053;-87
2022/11/28 03:33:20;;;;;;;8.07;4.22;;;;;;;;;;5046370;28;20033;-87
2022/11/28 03:35:50;;;;;;;8.43;3.85;;;;;;;;;;5030592;28;20084;-87
2022/11/28 03:38:27;;;;;;;7.07;3.80;;;;;;;;;;5019238;28;20108;-87
2022/11/28 03:40:57;;;;;;;7.03;4.10;;;;;;;;;;5028491;28;20128;-87
2022/11/28 03:43:33;;;;;;;7.32;4.32;;;;;;;;;;5025624;28;20491;-87
2022/11/28 03:46:03;;;;;;;10.00;3.92;;;;;;;;;;5022008;28;20041;-86
2022/11/28 03:48:38;;;;;;;9.02;4.88;;;;;;;;;;5028553;28;20042;-86
2022/11/28 03:51:32;;;;;;;7.10;3.67;;;;;;;;;;5038084;28;20030;-87
2022/11/28 03:54:15;;;;;;;8.88;4.28;;;;;;;;;;5022140;28;20577;-87
2022/11/28 03:56:49;;;;;;;9.88;4.63;;;;;;;;;;5027110;28;20095;-87
2022/11/28 03:59:46;;;;;;;8.55;5.05;;;;;;;;;;5027519;28;20478;-85
2022/11/28 04:02:21;;;;;;;13.07;5.15;;;;;;;;;;5030899;28;20109;-86
2022/11/28 04:04:58;;;;;;;9.27;4.88;;;;;;;;;;5030729;28;20097;-86
2022/11/28 04:07:48;;;;;;;9.80;5.07;;;;;;;;;;5028342;28;20045;-86
2022/11/28 04:10:20;;;;;;;10.02;5.38;;;;;;;;;;5028647;28;20537;-85
2022/11/28 04:12:52;;;;;;;10.57;5.40;;;;;;;;;;5026283;28;20043;-86
2022/11/28 04:15:53;;;;;;;9.40;5.03;;;;;;;;;;5023369;28;20029;-86
2022/11/28 04:18:21;;;;;;;11.57;5.13;;;;;;;;;;5028902;28;20032;-86
2022/11/28 04:21:00;;;;;;;11.88;5.68;;;;;;;;;;5028352;28;20045;-86
2022/11/28 04:23:26;;;;;;;10.23;5.50;;;;;;;;;;5024994;28;20037;-86
2022/11/28 04:25:59;;;;;;;9.77;5.05;;;;;;;;;;5028242;28;20683;-86
2022/11/28 04:28:28;;;;;;;10.82;5.15;;;;;;;;;;5029340;28;20021;-86
2022/11/28 04:30:56;;;;;;;11.57;5.93;;;;;;;;;;5026916;28;20530;-86
2022/11/28 04:33:24;;;;;;;11.85;5.28;;;;;;;;;;5028600;28;20872;-86
2022/11/28 04:35:53;;;;;;;9.80;5.47;;;;;;;;;;5026636;28;20025;-86
2022/11/28 04:38:21;;;;;;;11.40;5.63;;;;;;;;;;5022497;28;20025;-86
2022/11/28 04:40:52;;;;;;;10.30;5.80;;;;;;;;;;5028320;28;20025;-86
2022/11/28 04:43:38;;;;;;;12.23;6.00;;;;;;;;;;5024528;28;20498;-86
2022/11/28 04:46:11;;;;;;;11.05;5.28;;;;;;;;;;5022573;28;20103;-87
2022/11/28 04:48:37;;;;;;;9.43;5.35;;;;;;;;;;5028086;28;20099;-86
2022/11/28 04:51:18;;;;;;;13.63;5.70;;;;;;;;;;5043319;28;20038;-86
2022/11/28 04:53:51;;;;;;;10.40;4.78;;;;;;;;;;5028915;28;20610;-87
2022/11/28 04:56:25;;;;;;;11.52;5.82;;;;;;;;;;5029247;28;20029;-87
2022/11/28 04:58:50;;;;;;;10.18;4.85;;;;;;;;;;5029187;28;20128;-86
2022/11/28 05:01:23;;;;;;;12.10;5.72;;;;;;;;;;5028154;28;20108;-86
2022/11/28 05:03:48;;;;;;;11.98;5.47;;;;;;;;;;5028459;28;20052;-86
2022/11/28 05:06:25;;;;;;;12.55;6.10;;;;;;;;;;5027693;28;20046;-87
2022/11/28 05:08:51;;;;;;;9.05;5.38;;;;;;;;;;5028800;28;20053;-87
2022/11/28 05:11:16;;;;;;;12.30;6.43;;;;;;;;;;5027876;28;20075;-87
2022/11/28 05:13:41;;;;;;;9.68;5.55;;;;;;;;;;5029866;28;20478;-87
2022/11/28 05:16:09;;;;;;;11.50;5.50;;;;;;;;;;5026781;28;20515;-86
2022/11/28 05:18:38;;;;;;;10.90;5.80;;;;;;;;;;5022040;28;20042;-87
2022/11/28 05:21:07;;;;;;;10.25;5.20;;;;;;;;;;5029147;28;20053;-86
2022/11/28 05:23:36;;;;;;;11.75;5.93;;;;;;;;;;5028085;28;20048;-87
2022/11/28 05:26:10;;;;;;;10.55;5.15;;;;;;;;;;5023048;28;20025;-87
2022/11/28 05:28:35;;;;;;;11.23;4.82;;;;;;;;;;5041747;28;20036;-86
2022/11/28 05:31:01;;;;;;;9.82;5.22;;;;;;;;;;5026610;28;20112;-86
2022/11/28 05:33:31;;;;;;;9.15;4.97;;;;;;;;;;5028432;28;20040;-86
2022/11/28 05:36:02;;;;;;;9.13;4.50;;;;;;;;;;5027640;28;20132;-87
2022/11/28 05:38:27;;;;;;;9.20;4.53;;;;;;;;;;5026665;28;20049;-86
2022/11/28 05:40:53;;;;;;;7.55;4.35;;;;;;;;;;5026346;28;20060;-86
2022/11/28 05:43:18;;;;;;;8.27;4.80;;;;;;;;;;5024033;28;20028;-85
2022/11/28 05:45:46;;;;;;;9.77;4.75;;;;;;;;;;5022748;28;20604;-82
2022/11/28 05:48:11;;;;;;;9.40;5.00;;;;;;;;;;5039919;28;20053;-85
2022/11/28 05:50:41;;;;;;;10.77;5.40;;;;;;;;;;5027776;28;20056;-86
2022/11/28 05:53:06;;;;;;;9.75;5.13;;;;;;;;;;5025145;28;20036;-86
2022/11/28 05:55:32;;;;;;;10.75;5.55;;;;;;;;;;5026919;28;20025;-86
2022/11/28 05:57:57;;;;;;;11.43;5.35;;;;;;;;;;5025836;28;20795;-86
2022/11/28 06:00:22;;;;;;;12.63;6.18;;;;;;;;;;5027063;28;20041;-85
2022/11/28 06:02:48;;;;;;;10.00;4.80;;;;;;;;;;5026562;28;20079;-86
2022/11/28 06:05:15;;;;;;;12.05;5.97;;;;;;;;;;5026446;28;20124;-86
2022/11/28 06:07:41;;;;;;;13.32;6.13;;;;;;;;;;5028064;28;20033;-86
2022/11/28 06:10:07;;;;;;;14.20;6.10;;;;;;;;;;5026978;28;20033;-86
2022/11/28 06:12:32;;;;;;;15.68;6.72;;;;;;;;;;5027720;28;20033;-86
2022/11/28 06:14:58;;;;;;;15.05;6.47;;;;;;;;;;5025779;28;20044;-86
2022/11/28 06:17:23;;;;;;;23.10;8.45;;;;;;;;;;5019647;28;20034;-86
2022/11/28 06:19:48;;;;;;;14.27;6.22;;;;;;;;;;5016673;28;20025;-86
2022/11/28 06:22:14;;;;;;;14.85;6.93;;;;;;;;;;5026107;28;20473;-86
2022/11/28 06:24:39;;;;;;;13.48;6.60;;;;;;;;;;5027251;28;20121;-86
2022/11/28 06:27:04;;;;;;;10.88;5.65;;;;;;;;;;5026432;28;20034;-86
2022/11/28 06:29:30;;;;;;;17.15;6.80;;;;;;;;;;5039418;28;20048;-87
2022/11/28 06:31:55;;;;;;;16.25;6.97;;;;;;;;;;5024449;28;20060;-86
2022/11/28 06:34:21;;;;;;;17.88;7.57;;;;;;;;;;5021350;28;20116;-86
2022/11/28 06:36:47;;;;;;;11.48;5.30;;;;;;;;;;5027081;28;20034;-86
2022/11/28 06:39:16;;;;;;;10.68;4.57;;;;;;;;;;5024241;28;20056;-86
2022/11/28 06:41:42;;;;;;;9.55;4.82;;;;;;;;;;5025840;28;20073;-86
2022/11/28 06:44:11;;;;;;;12.10;5.60;;;;;;;;;;5014267;28;20026;-86
2022/11/28 06:46:37;;;;;;;11.95;5.10;;;;;;;;;;5025494;28;20096;-86
2022/11/28 06:49:03;;;;;;;11.02;5.50;;;;;;;;;;5026910;28;20037;-86
2022/11/28 06:51:28;;;;;;;8.55;4.82;;;;;;;;;;5042191;28;20037;-86
2022/11/28 06:53:54;;;;;;;14.10;7.25;;;;;;;;;;5025335;28;20057;-86
2022/11/28 06:56:20;;;;;;;15.50;6.30;;;;;;;;;;5026947;28;20103;-85
2022/11/28 06:58:46;;;;;;;11.55;5.50;;;;;;;;;;5025310;28;20509;-86
2022/11/28 07:01:17;;;;;;;12.23;6.63;;;;;;;;;;5026648;28;20121;-86
2022/11/28 07:03:43;;;;;;;13.88;6.00;;;;;;;;;;5026936;28;20128;-86
2022/11/28 07:06:09;;;;;;;13.43;6.18;;;;;;;;;;5025622;28;20033;-86
2022/11/28 07:08:35;;;;;;;10.98;5.55;;;;;;;;;;5024729;28;20033;-86
2022/11/28 07:11:08;;;;;;;12.52;4.90;;;;;;;;;;5021083;28;20022;-86
2022/11/28 07:13:33;;;;;;;10.68;5.22;;;;;;;;;;5030073;28;20476;-86
2022/11/28 07:15:59;;;;;;;7.43;4.15;;;;;;;;;;5044711;28;20113;-86
2022/11/28 07:18:24;;;;;;;9.07;4.53;;;;;;;;;;5026997;28;20033;-88
2022/11/28 07:20:49;;;;;;;8.13;4.47;;;;;;;;;;5017173;28;20117;-87
2022/11/28 07:23:15;;;;;;;10.32;4.88;;;;;;;;;;5017863;28;20037;-87
2022/11/28 07:25:40;;;;;;;11.75;5.53;;;;;;;;;;5015268;28;20592;-87
2022/11/28 07:28:06;;;;;;;9.52;4.65;;;;;;;;;;5023052;28;20099;-88
2022/11/28 07:30:31;;;;;;;11.05;5.10;;;;;;;;;;5020596;28;20576;-88
2022/11/28 07:32:56;;;;;;;11.85;4.72;;;;;;;;;;5028393;28;20049;-87
2022/11/28 07:35:22;;;;;;;9.95;5.07;;;;;;;;;;5030036;28;20037;-87
2022/11/28 07:37:47;;;;;;;11.15;5.43;;;;;;;;;;5029733;28;20026;-81
2022/11/28 07:40:13;;;;;;;11.95;5.35;;;;;;;;;;5025967;28;20041;-88
2022/11/28 07:42:38;;;;;;;10.45;5.60;;;;;;;;;;5030169;28;20056;-87
2022/11/28 07:45:04;;;;;;;10.05;5.03;;;;;;;;;;5018455;28;20033;-88
2022/11/28 07:47:30;;;;;;;12.75;5.35;;;;;;;;;;5030196;28;20136;-88
2022/11/28 07:49:55;;;;;;;12.98;5.93;;;;;;;;;;5027554;28;20707;-86
2022/11/28 07:52:21;;;;;;;12.95;6.25;;;;;;;;;;5040402;28;20045;-87
2022/11/28 07:54:48;;;;;;;13.38;6.13;;;;;;;;;;5029395;28;20514;-88
2022/11/28 07:57:16;;;;;;;16.67;7.05;;;;;;;;;;5028357;28;20041;-88
2022/11/28 07:59:42;;;;;;;14.38;7.13;;;;;;;;;;5029384;28;20090;-88
2022/11/28 08:02:09;;;;;;;13.18;6.95;;;;;;;;;;5031006;28;20025;-88
2022/11/28 08:04:36;;;;;;;15.07;6.47;;;;;;;;;;5026247;28;20021;-87
2022/11/28 08:07:01;;;;;;;15.63;6.90;;;;;;;;;;5026263;28;20524;-88
2022/11/28 08:09:27;;;;;;;16.95;6.93;;;;;;;;;;5022724;28;20120;-88
2022/11/28 08:11:52;;;;;;;17.20;6.95;;;;;;;;;;5015346;28;20033;-88
2022/11/28 08:14:18;;;;;;;15.70;6.93;;;;;;;;;;5015274;28;20037;-88
2022/11/28 08:16:44;;;;;;;16.08;6.93;;;;;;;;;;5022997;28;20029;-88
2022/11/28 08:19:09;;;;;;;18.65;6.78;;;;;;;;;;5027862;28;20044;-88
2022/11/28 08:21:35;;;;;;;16.05;7.10;;;;;;;;;;5021001;28;20045;-88
2022/11/28 08:24:02;;;;;;;17.75;7.32;;;;;;;;;;5041264;28;20072;-87
2022/11/28 08:26:30;;;;;;;17.38;7.32;;;;;;;;;;5036671;28;20030;-88
2022/11/28 08:28:56;;;;;;;17.15;6.97;;;;;;;;;;5029459;28;20127;-87
2022/11/28 08:31:27;;;;;;;18.02;7.35;;;;;;;;;;5020017;28;20056;-86
2022/11/28 08:33:58;;;;;;;17.02;6.88;;;;;;;;;;5015266;28;20041;-86
2022/11/28 08:36:24;;;;;;;16.13;7.07;;;;;;;;;;5025508;28;20038;-87
2022/11/28 08:38:49;;;;;;;19.63;7.43;;;;;;;;;;5026276;28;20446;-87
2022/11/28 08:41:20;;;;;;;15.65;6.78;;;;;;;;;;5025130;28;20095;-87
2022/11/28 08:43:46;;;;;;;15.43;6.65;;;;;;;;;;5025621;28;20779;-87
2022/11/28 08:46:14;;;;;;;16.55;6.82;;;;;;;;;;5023094;28;20585;-86
2022/11/28 08:48:40;;;;;;;14.32;6.85;;;;;;;;;;5020306;28;20049;-86
2022/11/28 08:51:17;;;;;;;15.82;6.80;;;;;;;;;;5029196;28;20688;-86
2022/11/28 08:53:43;;;;;;;15.43;7.13;;;;;;;;;;5028072;28;20053;-86
2022/11/28 08:56:09;;;;;;;15.23;6.53;;;;;;;;;;5036147;28;20096;-86
2022/11/28 08:58:35;;;;;;;16.95;8.23;;;;;;;;;;5028020;28;20083;-86
2022/11/28 09:01:00;;;;;;;21.02;7.43;;;;;;;;;;5022531;28;20446;-86
2022/11/28 09:03:25;;;;;;;14.82;7.18;;;;;;;;;;5020528;28;20033;-86
2022/11/28 09:05:52;;;;;;;23.05;7.85;;;;;;;;;;5023375;28;20506;-86
2022/11/28 09:08:19;;;;;;;19.85;7.53;;;;;;;;;;5023736;28;20036;-85
2022/11/28 09:10:47;;;;;;;19.38;8.13;;;;;;;;;;5022839;28;20029;-86
2022/11/28 09:13:16;;;;;;;19.00;7.45;;;;;;;;;;5027723;28;20057;-86
2022/11/28 09:15:43;;;;;;;19.23;6.63;;;;;;;;;;5025665;28;20061;-87
2022/11/28 09:18:11;;;;;;;17.67;7.13;;;;;;;;;;5026471;28;20040;-86
2022/11/28 09:20:36;;;;;;;17.75;7.20;;;;;;;;;;5020544;28;20033;-86
2022/11/28 09:23:01;;;;;;;17.70;6.80;;;;;;;;;;5021317;28;20060;-85
2022/11/28 09:25:27;;;;;;;15.40;6.85;;;;;;;;;;5025873;28;20025;-86
2022/11/28 09:27:52;;;;;;;21.25;7.32;;;;;;;;;;5025288;28;20124;-85
2022/11/28 09:30:21;;;;;;;13.68;6.05;;;;;;;;;;5023533;28;20040;-87
2022/11/28 09:32:50;;;;;;;20.02;7.38;;;;;;;;;;5028427;28;20025;-85
2022/11/28 09:35:16;;;;;;;16.20;6.53;;;;;;;;;;5027546;28;20044;-85
2022/11/28 09:37:41;;;;;;;14.40;6.53;;;;;;;;;;5024084;28;20553;-86
2022/11/28 09:40:18;;;;;;;20.52;7.03;;;;;;;;;;5013200;28;20108;-90
2022/11/28 09:42:45;;;;;;;19.33;7.05;;;;;;;;;;5004024;28;20045;-84
2022/11/28 09:45:18;;;;;;;16.52;6.68;;;;;;;;;;5021260;28;20045;-83
2022/11/28 09:48:06;;;;;;;20.15;7.30;;;;;;;;;;5020864;28;20056;-84
2022/11/28 09:50:34;;;;;;;20.55;7.30;;;;;;;;;;4993140;28;20033;-84
2022/11/28 09:53:33;;;;;;;16.80;6.53;;;;;;;;;;5032827;28;20052;-85
2022/11/28 09:56:14;;;;;;;18.38;6.97;;;;;;;;;;5019523;28;20087;-84
2022/11/28 09:58:52;;;;;;;18.77;7.70;;;;;;;;;;5036288;28;20491;-84
2022/11/28 10:01:42;;;;;;;20.33;7.65;;;;;;;;;;5036121;28;20495;-83
2022/11/28 10:04:37;;;;;;;15.15;6.50;;;;;;;;;;5020325;28;20120;-84
2022/11/28 10:07:15;;;;;;;21.40;7.28;;;;;;;;;;4994343;28;20499;-83
2022/11/28 10:10:00;;;;;;;22.75;8.20;;;;;;;;;;5022360;28;20423;-82
2022/11/28 10:12:59;;;;;;;18.20;6.93;;;;;;;;;;5019916;28;20541;-83
2022/11/28 10:15:34;;;;;;;23.73;6.28;;;;;;;;;;5019671;28;20079;-83
2022/11/28 10:18:02;;;;;;;18.33;7.15;;;;;;;;;;5024732;28;20069;-83
2022/11/28 10:20:36;;;;;;;20.23;7.03;;;;;;;;;;5038922;28;20037;-82
2022/11/28 10:23:22;;;;;;;18.25;7.75;;;;;;;;;;5019160;28;20060;-83
2022/11/28 10:26:24;;;;;;;25.02;9.48;;;;;;;;;;5019657;28;20048;-83
2022/11/28 10:28:54;;;;;;;36.55;17.20;;;;;;;;;;5023606;28;20075;-83
2022/11/28 10:31:40;;;;;;;50.60;23.08;;;;;;;;;;5022762;28;20080;-81
2022/11/28 10:34:27;;;;;;;49.75;25.30;;;;;;;;;;5031872;28;20049;-83
2022/11/28 10:37:17;;;;;;;71.10;32.28;;;;;;;;;;5021784;28;20048;-83
2022/11/28 10:39:44;;;;;;;76.20;33.75;;;;;;;;;;5035848;28;20136;-83
2022/11/28 10:42:12;;;;;;;68.13;30.88;;;;;;;;;;5019058;28;20073;-79
2022/11/28 10:45:19;;;;;;;78.10;36.40;;;;;;;;;;5020510;28;20046;-83
2022/11/28 10:48:07;;;;;;;50.08;22.33;;;;;;;;;;5023867;28;20081;-83
2022/11/28 10:50:37;;;;;;;51.80;23.73;;;;;;;;;;5023370;28;20056;-83
2022/11/28 10:53:22;;;;;;;35.15;16.02;;;;;;;;;;5015366;28;20037;-83
2022/11/28 10:56:22;;;;;;;28.92;12.27;;;;;;;;;;5013341;28;20112;-83
2022/11/28 10:59:26;;;;;;;20.40;8.07;;;;;;;;;;5017657;28;20010;-84
2022/11/28 11:01:52;;;;;;;18.55;8.20;;;;;;;;;;4984819;28;20554;-84
2022/11/28 11:04:20;;;;;;;25.55;10.32;;;;;;;;;;5013700;28;20045;-83
2022/11/28 11:06:59;;;;;;;21.90;10.02;;;;;;;;;;5020689;28;20644;-84
2022/11/28 11:09:25;;;;;;;19.80;8.40;;;;;;;;;;5027031;28;20025;-81
2022/11/28 11:11:59;;;;;;;26.38;11.75;;;;;;;;;;5027933;28;20056;-85
2022/11/28 11:14:34;;;;;;;34.80;13.95;;;;;;;;;;5005269;28;20165;-83
2022/11/28 11:17:00;;;;;;;26.52;9.48;;;;;;;;;;5020923;28;20034;-83
2022/11/28 11:19:32;;;;;;;16.63;7.90;;;;;;;;;;5015902;28;20017;-84
2022/11/28 11:22:10;;;;;;;16.17;8.13;;;;;;;;;;5008143;28;20072;-85
2022/11/28 11:24:35;;;;;;;19.85;8.95;;;;;;;;;;5013753;28;20522;-86
2022/11/28 11:27:20;;;;;;;21.70;7.68;;;;;;;;;;5038595;28;20064;-86
2022/11/28 11:29:45;;;;;;;20.00;7.38;;;;;;;;;;5018473;28;20057;-85
2022/11/28 11:32:22;;;;;;;23.98;7.90;;;;;;;;;;5023958;28;20068;-87
2022/11/28 11:34:48;;;;;;;22.42;7.93;;;;;;;;;;5033060;28;20479;-83
2022/11/28 11:37:31;;;;;;;23.42;8.13;;;;;;;;;;5025291;28;20026;-83
2022/11/28 11:39:57;;;;;;;22.73;7.82;;;;;;;;;;5028684;28;20026;-83
2022/11/28 11:42:26;;;;;;;25.85;7.85;;;;;;;;;;5027894;28;20044;-83
2022/11/28 11:44:54;;;;;;;29.23;7.97;;;;;;;;;;5026681;28;20253;-83
2022/11/28 11:47:39;;;;;;;33.10;9.05;;;;;;;;;;5026320;28;20034;-83
2022/11/28 11:50:05;;;;;;;26.60;9.45;;;;;;;;;;5023298;28;20422;-83
2022/11/28 11:52:30;;;;;;;40.53;13.25;;;;;;;;;;5022358;28;20522;-83
2022/11/28 11:54:56;;;;;;;32.33;12.30;;;;;;;;;;5026903;28;20034;-83
2022/11/28 11:57:25;;;;;;;29.98;8.88;;;;;;;;;;5027366;28;20029;-83
2022/11/28 12:00:09;;;;;;;27.67;10.30;;;;;;;;;;5027050;28;20069;-83
2022/11/28 12:02:50;;;;;;;24.77;8.30;;;;;;;;;;5038489;28;20033;-83
2022/11/28 12:05:30;;;;;;;24.92;8.25;;;;;;;;;;5025720;28;20030;-82
2022/11/28 12:08:09;;;;;;;24.23;8.07;;;;;;;;;;5026251;28;20781;-83
2022/11/28 12:10:39;;;;;;;27.48;8.00;;;;;;;;;;5024991;28;20446;-83
2022/11/28 12:13:04;;;;;;;31.20;8.82;;;;;;;;;;5024855;28;20525;-83
2022/11/28 12:15:30;;;;;;;29.45;8.43;;;;;;;;;;5024122;28;20038;-82
2022/11/28 12:18:05;;;;;;;22.05;7.53;;;;;;;;;;5020559;28;20581;-83
2022/11/28 12:20:35;;;;;;;23.30;7.65;;;;;;;;;;5023272;28;20047;-83
2022/11/28 12:23:33;;;;;;;30.95;8.75;;;;;;;;;;5022654;28;20045;-83
2022/11/28 12:26:02;;;;;;;27.15;8.63;;;;;;;;;;5017477;28;20531;-83
2022/11/28 12:28:39;;;;;;;26.02;9.05;;;;;;;;;;5023734;28;20048;-83
2022/11/28 12:31:27;;;;;;;17.83;7.85;;;;;;;;;;5019373;28;20033;-83
2022/11/28 12:34:14;;;;;;;26.35;9.38;;;;;;;;;;5019837;28;20175;-82
2022/11/28 12:37:02;;;;;;;29.77;8.88;;;;;;;;;;5044547;28;20037;-82
2022/11/28 12:39:48;;;;;;;31.23;8.88;;;;;;;;;;5027012;28;20109;-84
2022/11/28 12:42:25;;;;;;;27.83;8.07;;;;;;;;;;5024411;28;20087;-83
2022/11/28 12:45:31;;;;;;;20.00;7.47;;;;;;;;;;5024859;28;20530;-83
2022/11/28 12:48:14;;;;;;;17.75;7.38;;;;;;;;;;5024775;28;20045;-82
2022/11/28 12:50:52;;;;;;;21.65;6.97;;;;;;;;;;5025345;28;20702;-86
2022/11/28 12:53:32;;;;;;;23.83;8.02;;;;;;;;;;5026122;28;20025;-85
2022/11/28 12:56:17;;;;;;;23.08;7.53;;;;;;;;;;5040560;28;20116;-90
2022/11/28 12:58:44;;;;;;;26.30;7.97;;;;;;;;;;5042398;28;20678;-91
2022/11/28 13:01:34;;;;;;;17.48;6.60;;;;;;;;;;5023148;28;20124;-88
2022/11/28 13:04:02;;;;;;;20.08;7.07;;;;;;;;;;5022954;28;20040;-88
2022/11/28 13:06:37;;;;;;;22.23;7.20;;;;;;;;;;5030279;28;20099;-88
2022/11/28 13:09:24;;;;;;;23.10;6.30;;;;;;;;;;5028109;28;20034;-88
2022/11/28 13:12:14;;;;;;;16.55;6.60;;;;;;;;;;5024296;28;20762;-89
2022/11/28 13:14:55;;;;;;;16.92;6.40;;;;;;;;;;5019693;28;20041;-88
2022/11/28 13:17:50;;;;;;;17.45;5.35;;;;;;;;;;5021114;28;20741;-87
2022/11/28 13:20:21;;;;;;;22.60;5.95;;;;;;;;;;5015628;28;20041;-87
2022/11/28 13:23:20;;;;;;;18.30;6.43;;;;;;;;;;5034323;28;20021;-88
2022/11/28 13:26:12;;;;;;;20.17;5.22;;;;;;;;;;5023861;28;20053;-88
2022/11/28 13:28:53;;;;;;;17.13;5.85;;;;;;;;;;5021927;28;20572;-87
2022/11/28 13:31:24;;;;;;;20.50;6.63;;;;;;;;;;5027649;28;20021;-80
2022/11/28 13:33:54;;;;;;;19.65;6.60;;;;;;;;;;5022782;28;20040;-88
2022/11/28 13:36:32;;;;;;;18.30;5.18;;;;;;;;;;5021591;28;20040;-88
2022/11/28 13:39:05;;;;;;;13.45;5.60;;;;;;;;;;5027405;28;20034;-88
2022/11/28 13:41:53;;;;;;;16.35;5.75;;;;;;;;;;5013244;28;20612;-88
2022/11/28 13:44:33;;;;;;;21.63;5.10;;;;;;;;;;5021346;28;20604;-88
2022/11/28 13:47:13;;;;;;;19.30;5.88;;;;;;;;;;5023802;28;20037;-89
2022/11/28 13:49:38;;;;;;;19.02;5.13;;;;;;;;;;5009322;28;20750;-88
2022/11/28 13:52:22;;;;;;;16.80;5.57;;;;;;;;;;5027096;28;20049;-88
2022/11/28 13:54:52;;;;;;;20.77;6.38;;;;;;;;;;5017445;28;20107;-88
2022/11/28 13:57:35;;;;;;;28.92;6.68;;;;;;;;;;5016715;28;20025;-81
2022/11/28 14:00:06;;;;;;;19.40;6.70;;;;;;;;;;5021241;28;20038;-89
2022/11/28 14:02:52;;;;;;;20.35;6.88;;;;;;;;;;5025967;28;20960;-82
2022/11/28 14:05:34;;;;;;;23.05;7.15;;;;;;;;;;5010589;28;20037;-89
2022/11/28 14:08:01;;;;;;;19.77;5.85;;;;;;;;;;5021095;28;20503;-89
2022/11/28 14:10:55;;;;;;;26.00;6.70;;;;;;;;;;5023840;28;20569;-88
2022/11/28 14:13:36;;;;;;;17.45;5.60;;;;;;;;;;5023998;28;20037;-89
2022/11/28 14:16:21;;;;;;;17.95;5.60;;;;;;;;;;5028865;28;20099;-90
2022/11/28 14:19:23;;;;;;;23.05;5.78;;;;;;;;;;5013242;28;20045;-89
2022/11/28 14:22:06;;;;;;;17.70;5.90;;;;;;;;;;5011454;28;20055;-88
2022/11/28 14:24:53;;;;;;;26.25;7.43;;;;;;;;;;5017567;28;20053;-89
2022/11/28 14:27:27;;;;;;;33.00;9.65;;;;;;;;;;5020488;28;20040;-89
2022/11/28 14:29:55;;;;;;;36.60;10.10;;;;;;;;;;5028063;28;20029;-90
2022/11/28 14:32:27;;;;;;;39.45;8.38;;;;;;;;;;5027579;28;20044;-89
2022/11/28 14:34:53;;;;;;;24.50;7.97;;;;;;;;;;5020758;28;20052;-88
2022/11/28 14:37:19;;;;;;;24.35;8.02;;;;;;;;;;5028335;28;20026;-89
2022/11/28 14:39:48;;;;;;;26.40;6.93;;;;;;;;;;5028819;28;20098;-89
2022/11/28 14:42:13;;;;;;;19.35;6.68;;;;;;;;;;5031551;28;20041;-89
2022/11/28 14:45:30;;;;;;;29.60;7.40;;;;;;;;;;5032390;28;20059;-89
2022/11/28 14:48:26;;;;;;;25.27;9.27;;;;;;;;;;5013560;28;20063;-82
2022/11/28 14:50:58;;;;;;;25.95;6.97;;;;;;;;;;5026767;28;20128;-87
2022/11/28 14:53:35;;;;;;;17.40;6.43;;;;;;;;;;5029067;28;20029;-89
2022/11/28 14:56:12;;;;;;;18.45;4.72;;;;;;;;;;5033356;28;20068;-88
2022/11/28 14:58:38;;;;;;;19.17;5.03;;;;;;;;;;5021785;28;20037;-89
2022/11/28 15:01:11;;;;;;;17.23;5.68;;;;;;;;;;5030963;28;20581;-87
2022/11/28 15:03:41;;;;;;;;;;;;;;;;;;5030482;28;20038;-89
2022/11/28 15:06:16;;;;;;;13.98;4.90;;;;;;;;;;5042994;28;20882;-88